Terminal Aerodrome Forecast
Issued by NWS Twin Cities, MN

Home | Current Version | Previous Version | Text Only | Print | Product List | Glossary Off
Versions: 1 2 3 4 5 6 7 8 9 10 11 12 13 14 15 16 17 18 19 20 21 22 23 24

000
FTUS43 KMPX 191400 AAA
TAFMSP
TAF AMD
KMSP 191401Z 1914/2018 31009KT P6SM FEW010 SCT017 SCT027
      TEMPO 1914/1917 SCT007 BKN010 OVC017
     FM191900 31009KT P6SM BKN050
     FM200300 05004KT P6SM FEW200
     FM200800 VRB02KT 5SM BR FEW005
      TEMPO 2010/2014 2SM BR BKN005
     FM201400 13006KT P6SM SCT050=

USA.gov is the U.S. government's official web portal to all federal, state and local government web resources and services.